createdAt,value
2018-09-08T00:00:30.252Z,11.90
2018-09-08T00:02:59.259Z,13.00
2018-09-08T00:05:33.992Z,12.00
2018-09-08T00:08:02.777Z,11.50
2018-09-08T00:19:28.363Z,12.00
2018-09-08T00:22:08.095Z,12.60
2018-09-08T00:24:41.043Z,12.00
2018-09-08T00:27:07.851Z,12.60
2018-09-08T00:32:27.967Z,12.50
2018-09-08T00:35:03.811Z,12.20
2018-09-08T00:37:32.171Z,12.30
2018-09-08T00:39:59.490Z,12.00
2018-09-08T00:42:26.792Z,12.80
2018-09-08T00:44:55.740Z,12.60
2018-09-08T00:47:23.139Z,12.20
2018-09-08T00:49:50.760Z,12.70
2018-09-08T00:52:18.051Z,12.30
2018-09-08T00:54:45.340Z,11.90
2018-09-08T00:57:31.675Z,13.10
2018-09-08T00:59:59.064Z,12.50
2018-09-08T01:02:28.309Z,12.80
2018-09-08T01:05:02.367Z,11.40
2018-09-08T01:10:10.022Z,12.70
2018-09-08T01:12:37.416Z,11.40
2018-09-08T01:15:05.479Z,12.20
2018-09-08T01:17:32.888Z,11.40
2018-09-08T01:20:04.620Z,12.00
2018-09-08T01:22:31.919Z,12.00
2018-09-08T01:28:10.423Z,12.20
2018-09-08T01:31:05.527Z,12.10
2018-09-08T01:33:32.871Z,11.90
2018-09-08T01:36:00.163Z,12.70
2018-09-08T01:38:27.518Z,13.00
2018-09-08T01:40:54.822Z,12.90
2018-09-08T01:43:22.288Z,12.80
2018-09-08T01:45:51.683Z,12.90
2018-09-08T01:48:18.960Z,12.40
2018-09-08T01:50:46.431Z,12.60
2018-09-08T01:53:14.664Z,12.60
2018-09-08T01:56:04.797Z,11.50
2018-09-08T01:58:32.130Z,12.50
2018-09-08T02:01:01.153Z,12.00
2018-09-08T02:03:28.435Z,12.50
2018-09-08T02:05:55.767Z,13.70
2018-09-08T02:08:23.478Z,13.40
2018-09-08T02:10:50.908Z,11.50
2018-09-08T02:13:31.965Z,13.50
2018-09-08T02:15:59.319Z,13.00
2018-09-08T02:18:27.356Z,13.90
2018-09-08T02:20:54.775Z,12.70
2018-09-08T02:23:22.932Z,13.60
2018-09-08T02:25:50.370Z,12.50
2018-09-08T02:28:19.353Z,12.90
2018-09-08T02:30:46.768Z,12.80
2018-09-08T02:33:16.071Z,13.50
2018-09-08T02:36:36.020Z,13.10
2018-09-08T02:39:05.128Z,12.90
2018-09-08T02:42:32.315Z,12.20
2018-09-08T02:45:03.356Z,13.10
2018-09-08T02:47:30.808Z,12.80
2018-09-08T02:50:09.705Z,14.00
2018-09-08T02:52:36.116Z,13.40
2018-09-08T02:55:02.679Z,14.00
2018-09-08T03:01:06.179Z,13.80
2018-09-08T03:06:20.827Z,13.10
2018-09-08T03:08:47.154Z,13.40
2018-09-08T03:11:32.295Z,14.60
2018-09-08T03:13:58.654Z,12.90
2018-09-08T03:16:25.030Z,13.70
2018-09-08T03:18:51.374Z,12.80
2018-09-08T03:21:17.704Z,13.30
2018-09-08T03:27:00.904Z,13.10
2018-09-08T03:29:27.382Z,12.90
2018-09-08T03:31:53.824Z,12.40
2018-09-08T03:34:20.402Z,13.40
2018-09-08T03:37:01.326Z,12.50
2018-09-08T03:39:27.651Z,12.40
2018-09-08T03:41:53.986Z,13.40
2018-09-08T03:44:20.428Z,12.80
2018-09-08T03:47:01.171Z,12.40
2018-09-08T03:49:27.519Z,12.60
2018-09-08T03:51:53.863Z,13.10
2018-09-08T03:54:20.182Z,11.80
2018-09-08T03:56:46.658Z,13.40
2018-09-08T03:59:13.343Z,12.80
2018-09-08T04:01:39.959Z,13.00
2018-09-08T04:04:07.829Z,12.00
2018-09-08T04:06:35.179Z,13.90
2018-09-08T04:09:03.299Z,13.00
2018-09-08T04:11:33.879Z,13.30
2018-09-08T04:14:03.150Z,13.00
2018-09-08T04:16:32.924Z,13.10
2018-09-08T04:19:03.367Z,13.00
2018-09-08T04:21:33.971Z,13.20
2018-09-08T04:24:01.716Z,13.30
2018-09-08T04:26:29.526Z,13.70
2018-09-08T04:28:56.876Z,12.80
2018-09-08T04:31:24.741Z,12.80
2018-09-08T04:33:52.064Z,12.30
2018-09-08T04:36:19.343Z,12.80
2018-09-08T04:38:46.612Z,11.50
2018-09-08T04:41:14.437Z,12.40
2018-09-08T04:43:41.771Z,12.20
2018-09-08T04:46:09.051Z,11.70
2018-09-08T04:48:36.351Z,12.70
2018-09-08T04:51:16.314Z,12.70
2018-09-08T04:53:43.829Z,12.30
2018-09-08T04:56:32.208Z,13.00
2018-09-08T04:59:00.306Z,12.40
2018-09-08T05:01:27.619Z,12.60
2018-09-08T05:06:52.090Z,12.80
2018-09-08T05:09:24.804Z,12.30
2018-09-08T05:11:52.211Z,13.20
2018-09-08T05:14:19.678Z,12.70
2018-09-08T05:17:01.669Z,13.40
2018-09-08T05:19:32.962Z,13.10
2018-09-08T05:22:00.290Z,13.10
2018-09-08T05:24:33.718Z,14.10
2018-09-08T05:27:20.289Z,13.30
2018-09-08T05:30:02.287Z,13.00
2018-09-08T05:32:35.922Z,13.10
2018-09-08T05:35:05.735Z,13.00
2018-09-08T05:37:33.145Z,12.50
2018-09-08T05:40:05.121Z,13.90
2018-09-08T05:42:32.878Z,13.50
2018-09-08T05:45:00.297Z,13.10
2018-09-08T05:47:27.579Z,13.90
2018-09-08T05:49:55.179Z,13.60
2018-09-08T05:52:22.567Z,13.70
2018-09-08T05:54:49.923Z,13.70
2018-09-08T05:57:18.905Z,14.10
2018-09-08T05:59:46.224Z,13.80
2018-09-08T06:02:19.450Z,14.00
2018-09-08T06:04:47.743Z,14.50
2018-09-08T06:07:17.747Z,14.20
2018-09-08T06:12:13.033Z,14.50
2018-09-08T06:14:41.676Z,15.00
2018-09-08T06:17:09.008Z,14.70
2018-09-08T06:19:40.142Z,14.80
2018-09-08T06:22:09.826Z,15.00
2018-09-08T06:24:37.197Z,15.30
2018-09-08T06:29:32.795Z,15.30
2018-09-08T06:32:02.140Z,15.20
2018-09-08T06:34:31.087Z,15.80
2018-09-08T06:39:26.849Z,16.30
2018-09-08T06:41:54.174Z,16.90
2018-09-08T06:44:21.478Z,17.10
2018-09-08T06:46:48.944Z,19.90
2018-09-08T06:49:17.051Z,18.20
2018-09-08T06:51:44.427Z,19.50
2018-09-08T06:54:14.299Z,18.60
2018-09-08T06:56:42.435Z,19.60
2018-09-08T06:59:09.762Z,17.40
2018-09-08T07:01:37.143Z,17.30
2018-09-08T07:04:06.270Z,17.30
2018-09-08T07:06:33.679Z,17.80
2018-09-08T07:09:02.517Z,19.20
2018-09-08T07:11:29.959Z,20.00
2018-09-08T07:13:58.275Z,20.20
2018-09-08T07:16:25.651Z,20.20
2018-09-08T07:21:22.077Z,21.50
2018-09-08T07:23:50.161Z,21.60
2018-09-08T07:26:22.328Z,21.50
2018-09-08T07:28:49.950Z,21.10
2018-09-08T07:31:17.248Z,18.80
2018-09-08T07:33:44.593Z,19.70
2018-09-08T07:36:11.859Z,19.60
2018-09-08T07:38:39.146Z,19.90
2018-09-08T07:43:57.891Z,20.70
2018-09-08T07:46:25.155Z,20.60
2018-09-08T07:48:52.507Z,22.30
2018-09-08T07:51:20.280Z,22.30
2018-09-08T07:53:47.616Z,21.40
2018-09-08T07:56:14.903Z,24.10
2018-09-08T07:58:42.194Z,24.20
2018-09-08T08:01:09.413Z,24.40
2018-09-08T08:03:41.693Z,24.80
2018-09-08T08:06:08.997Z,25.20
2018-09-08T08:08:36.203Z,25.00
2018-09-08T08:11:03.519Z,25.10
2018-09-08T08:13:30.803Z,25.00
2018-09-08T08:15:58.027Z,25.00
2018-09-08T08:18:25.256Z,25.30
2018-09-08T08:20:52.510Z,24.80
2018-09-08T08:23:19.773Z,25.60
2018-09-08T08:26:03.375Z,25.90
2018-09-08T08:36:02.910Z,28.30
2018-09-08T08:38:30.576Z,28.80
2018-09-08T08:45:52.427Z,28.60
2018-09-08T08:48:22.412Z,28.70
2018-09-08T08:51:01.475Z,29.10
2018-09-08T08:53:40.411Z,29.40
2018-09-08T08:56:08.216Z,28.60
2018-09-08T08:58:35.477Z,28.90
2018-09-08T09:01:02.756Z,28.60
2018-09-08T09:03:30.670Z,28.70
2018-09-08T09:05:58.268Z,29.20
2018-09-08T09:08:26.625Z,28.70
2018-09-08T09:10:55.529Z,29.70
2018-09-08T09:13:23.222Z,30.10
2018-09-08T09:16:04.971Z,30.10
2018-09-08T09:18:44.239Z,30.90
2018-09-08T09:21:23.164Z,28.70
2018-09-08T09:24:59.373Z,28.80
2018-09-08T09:27:33.813Z,28.40
2018-09-08T09:30:01.601Z,29.10
2018-09-08T09:32:28.968Z,29.40
2018-09-08T09:34:56.258Z,28.70
2018-09-08T09:37:23.679Z,27.30
2018-09-08T09:39:51.811Z,25.80
2018-09-08T09:42:19.104Z,28.00
2018-09-08T09:44:46.408Z,28.80
2018-09-08T09:47:14.577Z,30.70
2018-09-08T09:49:41.974Z,30.70
2018-09-08T09:52:09.432Z,30.20
2018-09-08T09:54:36.731Z,27.30
2018-09-08T09:57:04.314Z,26.60
2018-09-08T09:59:31.748Z,27.10
2018-09-08T10:02:07.815Z,26.50
2018-09-08T10:04:35.229Z,26.70
2018-09-08T10:07:07.779Z,25.40
2018-09-08T10:09:36.322Z,24.20
2018-09-08T10:12:03.646Z,25.90
2018-09-08T10:14:30.978Z,25.20
2018-09-08T10:16:58.259Z,26.40
2018-09-08T10:19:25.560Z,27.10
2018-09-08T10:21:52.976Z,28.30
2018-09-08T10:24:20.223Z,30.40
2018-09-08T10:26:47.475Z,31.70
2018-09-08T10:29:14.698Z,31.20
2018-09-08T10:31:41.934Z,31.00
2018-09-08T10:34:09.199Z,31.00
2018-09-08T10:36:36.419Z,32.00
2018-09-08T10:39:05.509Z,31.50
2018-09-08T10:41:32.755Z,30.30
2018-09-08T10:44:00.032Z,30.40
2018-09-08T10:46:27.475Z,29.10
2018-09-08T10:48:54.761Z,29.50
2018-09-08T10:53:39.734Z,31.00
2018-09-08T10:56:07.072Z,30.90
2018-09-08T10:58:34.839Z,29.20
2018-09-08T11:01:02.259Z,31.30
2018-09-08T11:03:29.691Z,33.00
2018-09-08T11:05:58.148Z,32.80
2018-09-08T11:08:25.499Z,34.10
2018-09-08T11:10:53.087Z,33.30
2018-09-08T11:13:20.591Z,30.80
2018-09-08T11:15:48.014Z,31.30
2018-09-08T11:18:15.277Z,32.60
2018-09-08T11:20:42.710Z,32.50
2018-09-08T11:25:37.332Z,34.80
2018-09-08T11:28:05.080Z,34.60
2018-09-08T11:30:32.506Z,33.90
2018-09-08T11:32:59.763Z,34.90
2018-09-08T11:35:27.083Z,34.00
2018-09-08T15:10:53.907Z,35.80
2018-09-08T15:13:21.195Z,34.30
2018-09-08T15:15:48.422Z,33.00
2018-09-08T15:18:17.166Z,32.00
2018-09-08T15:20:44.407Z,30.40
2018-09-08T15:23:11.671Z,29.30
2018-09-08T15:28:06.143Z,27.60
2018-09-08T15:30:33.933Z,27.40
2018-09-08T15:33:01.267Z,27.10
2018-09-08T15:35:28.491Z,26.90
2018-09-08T15:37:56.351Z,26.90
2018-09-08T15:40:23.607Z,29.40
2018-09-08T15:42:50.830Z,29.70
2018-09-08T15:45:18.107Z,30.70
2018-09-08T15:47:45.835Z,32.90
2018-09-08T15:50:13.100Z,33.10
2018-09-08T15:52:40.441Z,32.80
2018-09-08T15:55:07.742Z,32.80
2018-09-08T15:57:35.291Z,33.50
2018-09-08T16:02:46.704Z,33.90
2018-09-08T16:05:14.048Z,33.10
2018-09-08T16:07:42.295Z,34.00
2018-09-08T16:10:09.486Z,33.60
2018-09-08T16:12:36.705Z,32.30
2018-09-08T16:15:04.018Z,31.40
2018-09-08T16:17:31.569Z,30.60
2018-09-08T16:19:58.822Z,30.00
2018-09-08T16:22:26.053Z,29.70
2018-09-08T16:24:55.723Z,28.80
2018-09-08T16:27:25.667Z,28.10
2018-09-08T16:29:56.102Z,26.80
2018-09-08T16:32:23.432Z,26.50
2018-09-08T16:37:17.958Z,25.60
2018-09-08T16:39:45.170Z,25.20
2018-09-08T16:42:12.402Z,24.70
2018-09-08T16:44:39.629Z,24.20
2018-09-08T16:47:06.858Z,23.90
2018-09-08T16:49:34.089Z,23.20
2018-09-08T16:52:01.389Z,23.40
2018-09-08T16:54:42.103Z,23.40
2018-09-08T16:57:09.523Z,23.30
2018-09-08T16:59:36.787Z,23.30
2018-09-08T17:02:04.038Z,23.20
2018-09-08T17:04:31.267Z,23.10
2018-09-08T17:06:58.535Z,23.10
2018-09-08T17:09:25.721Z,23.00
2018-09-08T17:11:52.963Z,22.90
2018-09-08T17:14:20.252Z,22.60
2018-09-08T17:16:47.438Z,22.40
2018-09-08T17:19:14.679Z,22.10
2018-09-08T17:21:41.925Z,22.10
2018-09-08T17:24:09.147Z,22.00
2018-09-08T17:26:36.474Z,21.90
2018-09-08T17:29:03.757Z,21.90
2018-09-08T17:31:31.108Z,21.00
2018-09-08T17:33:58.482Z,21.70
2018-09-08T17:36:26.303Z,21.50
2018-09-08T17:38:53.640Z,21.30
2018-09-08T17:41:21.787Z,21.30
2018-09-08T17:43:49.160Z,21.10
2018-09-08T17:46:16.406Z,20.90
2018-09-08T17:48:43.755Z,20.80
2018-09-08T17:51:11.002Z,20.70
2018-09-08T17:53:38.253Z,20.60
2018-09-08T17:56:05.526Z,20.40
2018-09-08T17:58:32.812Z,20.10
2018-09-08T18:01:00.044Z,20.00
2018-09-08T18:03:34.055Z,19.70
2018-09-08T18:06:01.267Z,19.90
2018-09-08T18:08:28.489Z,17.70
2018-09-08T18:10:55.886Z,20.20
2018-09-08T18:13:24.124Z,19.70
2018-09-08T18:15:51.470Z,19.50
2018-09-08T18:18:18.851Z,19.40
2018-09-08T18:20:46.153Z,19.40
2018-09-08T18:23:13.531Z,19.20
2018-09-08T18:25:40.751Z,19.10
2018-09-08T18:28:08.073Z,19.00
2018-09-08T18:30:35.330Z,18.90
2018-09-08T18:33:03.048Z,18.80
2018-09-08T18:35:30.603Z,18.60
2018-09-08T18:37:58.219Z,18.50
2018-09-08T18:40:25.571Z,18.50
2018-09-08T18:42:53.066Z,19.10
2018-09-08T18:45:20.974Z,17.60
2018-09-08T18:50:16.871Z,18.50
2018-09-08T18:55:25.319Z,17.90
2018-09-08T18:57:53.007Z,17.70
2018-09-08T19:00:20.295Z,17.70
2018-09-08T19:02:47.631Z,17.60
2018-09-08T19:05:15.162Z,17.70
2018-09-08T19:07:42.768Z,17.50
2018-09-08T19:10:10.064Z,17.40
2018-09-08T19:12:37.389Z,17.40
2018-09-08T19:15:10.473Z,17.20
2018-09-08T19:17:37.791Z,18.70
2018-09-08T19:20:10.687Z,17.10
2018-09-08T19:22:56.320Z,17.00
2018-09-08T19:25:23.635Z,16.80
2018-09-08T19:27:50.935Z,16.90
2018-09-08T19:30:18.517Z,16.60
2018-09-08T19:32:46.064Z,16.70
2018-09-08T19:35:19.296Z,16.60
2018-09-08T19:37:46.700Z,16.50
2018-09-08T19:43:02.004Z,16.40
2018-09-08T19:45:29.753Z,15.70
2018-09-08T19:48:03.739Z,15.20
2018-09-08T19:50:31.877Z,16.30
2018-09-08T19:53:08.369Z,16.20
2018-09-08T19:55:35.860Z,16.00
2018-09-08T19:58:09.119Z,13.90
2018-09-08T20:00:36.615Z,15.80
2018-09-08T20:03:03.877Z,16.70
2018-09-08T20:05:31.175Z,16.80
2018-09-08T20:08:00.451Z,15.50
2018-09-08T20:10:28.135Z,17.20
2018-09-08T20:13:03.536Z,15.40
2018-09-08T20:15:32.697Z,14.90
2018-09-08T20:18:01.254Z,15.30
2018-09-08T20:20:30.888Z,16.00
2018-09-08T20:22:58.468Z,15.00
2018-09-08T20:25:33.779Z,16.40
2018-09-08T20:28:01.769Z,15.10
2018-09-08T20:30:30.814Z,16.70
2018-09-08T20:32:58.455Z,14.40
2018-09-08T20:35:30.865Z,14.70
2018-09-08T20:37:58.299Z,14.80
2018-09-08T20:40:25.645Z,12.50
2018-09-08T20:43:02.851Z,14.70
2018-09-08T20:45:34.798Z,14.60
2018-09-08T20:48:03.553Z,14.60
2018-09-08T20:50:34.460Z,14.80
2018-09-08T20:53:01.868Z,14.30
2018-09-08T20:55:30.816Z,15.60
2018-09-08T20:58:02.087Z,14.60
2018-09-08T21:00:32.888Z,14.40
2018-09-08T21:05:47.289Z,12.90
2018-09-08T21:08:14.591Z,14.30
2018-09-08T21:10:41.940Z,14.20
2018-09-08T21:13:09.704Z,14.10
2018-09-08T21:15:37.047Z,15.60
2018-09-08T21:18:06.816Z,12.20
2018-09-08T21:20:34.436Z,15.40
2018-09-08T21:23:02.921Z,14.00
2018-09-08T21:25:33.694Z,14.90
2018-09-08T21:28:05.020Z,13.40
2018-09-08T21:30:35.388Z,13.70
2018-09-08T21:35:31.719Z,13.50
2018-09-08T21:38:05.709Z,13.40
2018-09-08T21:40:33.046Z,14.80
2018-09-08T21:43:06.664Z,13.50
2018-09-08T21:45:36.544Z,13.60
2018-09-08T21:48:09.820Z,13.30
2018-09-08T21:50:38.855Z,13.10
2018-09-08T22:18:11.064Z,13.20
2018-09-08T22:20:40.348Z,11.80
2018-09-08T22:23:08.559Z,10.90
2018-09-08T22:25:35.889Z,12.60
2018-09-08T22:28:04.597Z,13.30
2018-09-08T22:30:34.803Z,12.90
2018-09-08T22:33:03.205Z,12.90
2018-09-08T22:35:33.771Z,12.90
2018-09-08T22:38:01.836Z,13.00
2018-09-08T22:40:29.448Z,13.00
2018-09-08T22:42:56.813Z,12.90
2018-09-08T22:45:24.160Z,13.30
2018-09-08T22:47:51.451Z,13.50
2018-09-08T22:50:18.732Z,12.90
2018-09-08T22:52:46.003Z,12.80
2018-09-08T22:55:13.416Z,13.10
2018-09-08T22:57:40.730Z,12.90
2018-09-08T23:00:08.167Z,12.00
2018-09-08T23:02:35.399Z,12.10
2018-09-08T23:05:02.672Z,13.00
2018-09-08T23:07:29.992Z,12.50
2018-09-08T23:09:57.298Z,12.70
2018-09-08T23:12:24.606Z,12.80
2018-09-08T23:14:51.824Z,12.70
2018-09-08T23:17:19.119Z,12.40
2018-09-08T23:19:46.470Z,12.20
2018-09-08T23:22:13.750Z,11.70
2018-09-08T23:24:40.999Z,12.00
2018-09-08T23:27:08.591Z,12.20
2018-09-08T23:29:35.999Z,12.50
2018-09-08T23:32:03.215Z,12.00
2018-09-08T23:34:30.762Z,13.20
2018-09-08T23:36:58.051Z,11.80
2018-09-08T23:39:25.455Z,11.80
2018-09-08T23:41:52.728Z,12.00
2018-09-08T23:44:20.002Z,11.70
2018-09-08T23:46:47.271Z,11.70
2018-09-08T23:54:09.233Z,11.80
2018-09-08T23:56:36.545Z,13.20
2018-09-08T23:59:04.144Z,11.80
